sensor_id;sensor_type;location;lat;lon;timestamp;temperature;humidity
74178;DHT22;62540;48.456;-4.456;2023-06-22T00:01:58;20.49;65.51
74178;DHT22;62540;48.456;-4.456;2023-06-22T00:04:23;20.53;65.27
74178;DHT22;62540;48.456;-4.456;2023-06-22T00:06:49;20.57;64.90
74178;DHT22;62540;48.456;-4.456;2023-06-22T00:09:14;20.56;64.68
74178;DHT22;62540;48.456;-4.456;2023-06-22T00:11:39;20.51;64.63
74178;DHT22;62540;48.456;-4.456;2023-06-22T00:14:05;20.48;64.75
74178;DHT22;62540;48.456;-4.456;2023-06-22T00:16:34;20.43;64.86
74178;DHT22;62540;48.456;-4.456;2023-06-22T00:19:00;20.42;64.89
74178;DHT22;62540;48.456;-4.456;2023-06-22T00:21:27;20.39;64.95
74178;DHT22;62540;48.456;-4.456;2023-06-22T00:23:52;20.41;64.83
74178;DHT22;62540;48.456;-4.456;2023-06-22T00:26:18;20.39;64.83
74178;DHT22;62540;48.456;-4.456;2023-06-22T00:28:43;20.35;64.84
74178;DHT22;62540;48.456;-4.456;2023-06-22T00:31:09;20.28;65.06
74178;DHT22;62540;48.456;-4.456;2023-06-22T00:33:34;20.25;65.18
74178;DHT22;62540;48.456;-4.456;2023-06-22T00:36:00;20.22;65.20
74178;DHT22;62540;48.456;-4.456;2023-06-22T00:38:25;20.21;65.29
74178;DHT22;62540;48.456;-4.456;2023-06-22T00:40:51;20.24;65.39
74178;DHT22;62540;48.456;-4.456;2023-06-22T00:43:16;20.22;65.39
74178;DHT22;62540;48.456;-4.456;2023-06-22T00:45:41;20.26;65.26
74178;DHT22;62540;48.456;-4.456;2023-06-22T00:48:07;20.33;64.95
74178;DHT22;62540;48.456;-4.456;2023-06-22T00:50:33;20.31;64.77
74178;DHT22;62540;48.456;-4.456;2023-06-22T00:53:03;20.29;64.57
74178;DHT22;62540;48.456;-4.456;2023-06-22T00:55:35;20.26;64.57
74178;DHT22;62540;48.456;-4.456;2023-06-22T00:58:06;20.17;64.72
74178;DHT22;62540;48.456;-4.456;2023-06-22T01:00:33;20.04;65.05
74178;DHT22;62540;48.456;-4.456;2023-06-22T01:02:58;19.98;65.35
74178;DHT22;62540;48.456;-4.456;2023-06-22T01:05:24;19.91;65.53
74178;DHT22;62540;48.456;-4.456;2023-06-22T01:10:46;19.95;65.43
74178;DHT22;62540;48.456;-4.456;2023-06-22T01:13:21;19.97;65.50
74178;DHT22;62540;48.456;-4.456;2023-06-22T01:15:55;19.94;65.50
74178;DHT22;62540;48.456;-4.456;2023-06-22T01:18:22;19.93;65.55
74178;DHT22;62540;48.456;-4.456;2023-06-22T01:20:55;19.91;65.53
74178;DHT22;62540;48.456;-4.456;2023-06-22T01:23:27;19.85;65.65
74178;DHT22;62540;48.456;-4.456;2023-06-22T01:28:51;19.80;65.74
74178;DHT22;62540;48.456;-4.456;2023-06-22T01:31:20;19.80;65.78
74178;DHT22;62540;48.456;-4.456;2023-06-22T01:34:05;19.85;65.78
74178;DHT22;62540;48.456;-4.456;2023-06-22T01:36:32;19.80;65.90
74178;DHT22;62540;48.456;-4.456;2023-06-22T01:38:59;19.78;65.95
74178;DHT22;62540;48.456;-4.456;2023-06-22T01:41:26;19.78;65.97
74178;DHT22;62540;48.456;-4.456;2023-06-22T01:43:53;19.75;66.07
74178;DHT22;62540;48.456;-4.456;2023-06-22T01:46:19;19.71;66.09
74178;DHT22;62540;48.456;-4.456;2023-06-22T01:48:46;19.74;66.01
74178;DHT22;62540;48.456;-4.456;2023-06-22T01:51:12;19.75;65.83
74178;DHT22;62540;48.456;-4.456;2023-06-22T01:53:37;19.71;65.70
74178;DHT22;62540;48.456;-4.456;2023-06-22T01:56:03;19.73;65.64
74178;DHT22;62540;48.456;-4.456;2023-06-22T01:58:30;19.73;65.39
74178;DHT22;62540;48.456;-4.456;2023-06-22T02:01:00;19.70;65.19
74178;DHT22;62540;48.456;-4.456;2023-06-22T02:03:37;19.64;65.49
74178;DHT22;62540;48.456;-4.456;2023-06-22T02:09:17;19.49;66.09
74178;DHT22;62540;48.456;-4.456;2023-06-22T02:11:45;19.40;66.02
74178;DHT22;62540;48.456;-4.456;2023-06-22T02:14:12;19.45;66.01
74178;DHT22;62540;48.456;-4.456;2023-06-22T02:16:38;19.42;66.01
74178;DHT22;62540;48.456;-4.456;2023-06-22T02:19:04;19.35;66.10
74178;DHT22;62540;48.456;-4.456;2023-06-22T02:21:32;19.29;66.21
74178;DHT22;62540;48.456;-4.456;2023-06-22T02:23:58;19.32;66.23
74178;DHT22;62540;48.456;-4.456;2023-06-22T02:26:24;19.30;66.06
74178;DHT22;62540;48.456;-4.456;2023-06-22T02:28:50;19.30;66.07
74178;DHT22;62540;48.456;-4.456;2023-06-22T02:31:16;19.23;66.14
74178;DHT22;62540;48.456;-4.456;2023-06-22T02:33:41;19.22;66.21
74178;DHT22;62540;48.456;-4.456;2023-06-22T02:36:07;19.23;66.14
74178;DHT22;62540;48.456;-4.456;2023-06-22T02:38:35;19.22;66.17
74178;DHT22;62540;48.456;-4.456;2023-06-22T02:41:02;19.16;66.31
74178;DHT22;62540;48.456;-4.456;2023-06-22T02:43:28;19.15;66.29
74178;DHT22;62540;48.456;-4.456;2023-06-22T02:45:53;19.20;66.08
74178;DHT22;62540;48.456;-4.456;2023-06-22T02:48:19;19.22;66.07
74178;DHT22;62540;48.456;-4.456;2023-06-22T02:50:44;19.19;66.08
74178;DHT22;62540;48.456;-4.456;2023-06-22T02:53:09;19.15;66.05
74178;DHT22;62540;48.456;-4.456;2023-06-22T02:55:35;19.11;66.19
74178;DHT22;62540;48.456;-4.456;2023-06-22T02:58:00;19.05;66.29
74178;DHT22;62540;48.456;-4.456;2023-06-22T03:00:30;18.98;66.44
74178;DHT22;62540;48.456;-4.456;2023-06-22T03:02:56;18.92;66.62
74178;DHT22;62540;48.456;-4.456;2023-06-22T03:05:22;18.92;66.78
74178;DHT22;62540;48.456;-4.456;2023-06-22T03:07:48;18.89;66.83
74178;DHT22;62540;48.456;-4.456;2023-06-22T03:10:14;18.92;66.79
74178;DHT22;62540;48.456;-4.456;2023-06-22T03:12:40;18.91;66.82
74178;DHT22;62540;48.456;-4.456;2023-06-22T03:15:10;18.87;67.00
74178;DHT22;62540;48.456;-4.456;2023-06-22T03:17:37;18.85;67.12
74178;DHT22;62540;48.456;-4.456;2023-06-22T03:20:04;18.79;67.18
74178;DHT22;62540;48.456;-4.456;2023-06-22T03:22:40;18.83;67.19
74178;DHT22;62540;48.456;-4.456;2023-06-22T03:25:09;18.74;67.29
74178;DHT22;62540;48.456;-4.456;2023-06-22T03:27:41;18.68;67.45
74178;DHT22;62540;48.456;-4.456;2023-06-22T03:30:09;18.65;67.75
74178;DHT22;62540;48.456;-4.456;2023-06-22T03:32:35;18.61;67.92
74178;DHT22;62540;48.456;-4.456;2023-06-22T03:35:01;18.61;67.95
74178;DHT22;62540;48.456;-4.456;2023-06-22T03:37:27;18.64;67.82
74178;DHT22;62540;48.456;-4.456;2023-06-22T03:39:53;18.65;67.89
74178;DHT22;62540;48.456;-4.456;2023-06-22T03:42:18;18.61;68.06
74178;DHT22;62540;48.456;-4.456;2023-06-22T03:44:44;18.60;68.28
74178;DHT22;62540;48.456;-4.456;2023-06-22T03:47:09;18.57;68.48
74178;DHT22;62540;48.456;-4.456;2023-06-22T03:49:35;18.60;68.51
74178;DHT22;62540;48.456;-4.456;2023-06-22T03:52:02;18.63;68.57
74178;DHT22;62540;48.456;-4.456;2023-06-22T03:54:28;18.65;68.57
74178;DHT22;62540;48.456;-4.456;2023-06-22T03:56:54;18.65;68.64
74178;DHT22;62540;48.456;-4.456;2023-06-22T03:59:19;18.68;68.67
74178;DHT22;62540;48.456;-4.456;2023-06-22T04:01:45;18.72;68.57
74178;DHT22;62540;48.456;-4.456;2023-06-22T04:04:11;18.74;68.56
74178;DHT22;62540;48.456;-4.456;2023-06-22T04:06:37;18.79;68.55
74178;DHT22;62540;48.456;-4.456;2023-06-22T04:09:03;18.78;68.62
74178;DHT22;62540;48.456;-4.456;2023-06-22T04:11:28;18.81;68.56
74178;DHT22;62540;48.456;-4.456;2023-06-22T04:13:54;18.77;68.71
74178;DHT22;62540;48.456;-4.456;2023-06-22T04:16:19;18.77;68.74
74178;DHT22;62540;48.456;-4.456;2023-06-22T04:18:44;18.81;68.72
74178;DHT22;62540;48.456;-4.456;2023-06-22T04:21:10;18.77;68.70
74178;DHT22;62540;48.456;-4.456;2023-06-22T04:23:36;18.79;68.65
74178;DHT22;62540;48.456;-4.456;2023-06-22T04:26:01;18.77;68.71
74178;DHT22;62540;48.456;-4.456;2023-06-22T04:28:26;18.77;68.65
74178;DHT22;62540;48.456;-4.456;2023-06-22T04:30:52;18.79;68.44
74178;DHT22;62540;48.456;-4.456;2023-06-22T04:33:17;18.84;68.10
74178;DHT22;62540;48.456;-4.456;2023-06-22T04:35:46;18.85;67.88
74178;DHT22;62540;48.456;-4.456;2023-06-22T04:38:12;18.84;67.71
74178;DHT22;62540;48.456;-4.456;2023-06-22T04:40:41;18.83;67.89
74178;DHT22;62540;48.456;-4.456;2023-06-22T04:43:06;18.78;68.09
74178;DHT22;62540;48.456;-4.456;2023-06-22T04:45:33;18.79;68.19
74178;DHT22;62540;48.456;-4.456;2023-06-22T04:47:58;18.81;68.11
74178;DHT22;62540;48.456;-4.456;2023-06-22T04:50:24;18.85;68.14
74178;DHT22;62540;48.456;-4.456;2023-06-22T04:52:50;18.89;67.93
74178;DHT22;62540;48.456;-4.456;2023-06-22T04:55:16;18.87;67.98
74178;DHT22;62540;48.456;-4.456;2023-06-22T04:57:45;18.87;67.99
74178;DHT22;62540;48.456;-4.456;2023-06-22T05:00:15;18.85;68.26
74178;DHT22;62540;48.456;-4.456;2023-06-22T05:02:43;18.91;68.24
74178;DHT22;62540;48.456;-4.456;2023-06-22T05:05:10;18.99;68.23
74178;DHT22;62540;48.456;-4.456;2023-06-22T05:07:42;19.05;68.15
74178;DHT22;62540;48.456;-4.456;2023-06-22T05:10:11;19.12;68.13
74178;DHT22;62540;48.456;-4.456;2023-06-22T05:12:38;19.18;67.96
74178;DHT22;62540;48.456;-4.456;2023-06-22T05:15:04;19.23;67.99
74178;DHT22;62540;48.456;-4.456;2023-06-22T05:17:30;19.32;67.98
74178;DHT22;62540;48.456;-4.456;2023-06-22T05:19:55;19.40;68.07
74178;DHT22;62540;48.456;-4.456;2023-06-22T05:22:20;19.45;68.10
74178;DHT22;62540;48.456;-4.456;2023-06-22T05:24:46;19.54;68.06
74178;DHT22;62540;48.456;-4.456;2023-06-22T05:27:12;19.62;67.88
74178;DHT22;62540;48.456;-4.456;2023-06-22T05:29:37;19.69;67.89
74178;DHT22;62540;48.456;-4.456;2023-06-22T05:32:03;19.78;67.73
74178;DHT22;62540;48.456;-4.456;2023-06-22T05:34:29;19.90;67.67
74178;DHT22;62540;48.456;-4.456;2023-06-22T05:36:54;19.95;67.44
74178;DHT22;62540;48.456;-4.456;2023-06-22T05:39:19;19.98;67.44
74178;DHT22;62540;48.456;-4.456;2023-06-22T05:41:45;20.02;67.35
74178;DHT22;62540;48.456;-4.456;2023-06-22T05:44:11;20.05;67.39
74178;DHT22;62540;48.456;-4.456;2023-06-22T05:46:39;20.04;67.55
74178;DHT22;62540;48.456;-4.456;2023-06-22T05:49:05;20.04;67.65
74178;DHT22;62540;48.456;-4.456;2023-06-22T05:51:30;20.07;67.72
74178;DHT22;62540;48.456;-4.456;2023-06-22T05:53:55;20.11;67.73
74178;DHT22;62540;48.456;-4.456;2023-06-22T05:56:21;20.26;67.86
74178;DHT22;62540;48.456;-4.456;2023-06-22T05:58:47;20.69;67.92
74178;DHT22;62540;48.456;-4.456;2023-06-22T06:01:12;21.15;67.67
74178;DHT22;62540;48.456;-4.456;2023-06-22T06:03:38;21.66;66.99
74178;DHT22;62540;48.456;-4.456;2023-06-22T06:06:07;22.13;66.66
74178;DHT22;62540;48.456;-4.456;2023-06-22T06:08:32;22.53;65.80
74178;DHT22;62540;48.456;-4.456;2023-06-22T06:10:58;22.90;65.40
74178;DHT22;62540;48.456;-4.456;2023-06-22T06:13:23;23.24;64.53
74178;DHT22;62540;48.456;-4.456;2023-06-22T06:15:48;23.53;63.98
74178;DHT22;62540;48.456;-4.456;2023-06-22T06:18:16;23.85;63.62
74178;DHT22;62540;48.456;-4.456;2023-06-22T06:20:42;24.19;63.19
74178;DHT22;62540;48.456;-4.456;2023-06-22T06:23:07;24.53;62.50
74178;DHT22;62540;48.456;-4.456;2023-06-22T06:25:33;24.89;62.01
74178;DHT22;62540;48.456;-4.456;2023-06-22T06:27:58;25.23;61.30
74178;DHT22;62540;48.456;-4.456;2023-06-22T06:30:23;25.51;60.89
74178;DHT22;62540;48.456;-4.456;2023-06-22T06:32:49;25.76;59.91
74178;DHT22;62540;48.456;-4.456;2023-06-22T06:35:15;25.74;60.00
74178;DHT22;62540;48.456;-4.456;2023-06-22T06:37:43;25.97;59.97
74178;DHT22;62540;48.456;-4.456;2023-06-22T06:40:10;26.33;58.49
74178;DHT22;62540;48.456;-4.456;2023-06-22T06:42:37;26.23;58.54
74178;DHT22;62540;48.456;-4.456;2023-06-22T06:45:06;26.00;58.55
74178;DHT22;62540;48.456;-4.456;2023-06-22T06:47:31;25.74;58.72
74178;DHT22;62540;48.456;-4.456;2023-06-22T06:49:57;25.42;58.45
74178;DHT22;62540;48.456;-4.456;2023-06-22T06:52:22;25.00;59.29
74178;DHT22;62540;48.456;-4.456;2023-06-22T06:54:48;24.65;59.77
74178;DHT22;62540;48.456;-4.456;2023-06-22T06:57:13;24.38;60.34
74178;DHT22;62540;48.456;-4.456;2023-06-22T06:59:40;24.24;60.73
74178;DHT22;62540;48.456;-4.456;2023-06-22T07:02:05;24.17;60.92
74178;DHT22;62540;48.456;-4.456;2023-06-22T07:04:31;24.05;60.84
74178;DHT22;62540;48.456;-4.456;2023-06-22T07:06:56;23.84;60.88
74178;DHT22;62540;48.456;-4.456;2023-06-22T07:09:21;23.71;61.62
74178;DHT22;62540;48.456;-4.456;2023-06-22T07:11:47;23.71;61.84
74178;DHT22;62540;48.456;-4.456;2023-06-22T07:14:12;23.71;61.86
74178;DHT22;62540;48.456;-4.456;2023-06-22T07:16:37;23.71;61.76
74178;DHT22;62540;48.456;-4.456;2023-06-22T07:19:03;23.81;61.39
74178;DHT22;62540;48.456;-4.456;2023-06-22T07:21:28;23.73;61.20
74178;DHT22;62540;48.456;-4.456;2023-06-22T07:23:54;23.50;61.34
74178;DHT22;62540;48.456;-4.456;2023-06-22T07:26:20;23.42;61.34
74178;DHT22;62540;48.456;-4.456;2023-06-22T07:28:45;23.40;61.35
74178;DHT22;62540;48.456;-4.456;2023-06-22T07:31:10;23.27;61.32
74178;DHT22;62540;48.456;-4.456;2023-06-22T07:33:36;23.05;61.61
74178;DHT22;62540;48.456;-4.456;2023-06-22T07:36:01;22.87;61.85
74178;DHT22;62540;48.456;-4.456;2023-06-22T07:38:32;22.72;62.19
74178;DHT22;62540;48.456;-4.456;2023-06-22T07:40:58;22.61;62.20
74178;DHT22;62540;48.456;-4.456;2023-06-22T07:43:23;22.48;62.35
74178;DHT22;62540;48.456;-4.456;2023-06-22T07:45:49;22.47;62.47
74178;DHT22;62540;48.456;-4.456;2023-06-22T07:48:21;22.48;62.49
74178;DHT22;62540;48.456;-4.456;2023-06-22T07:50:47;22.61;62.31
74178;DHT22;62540;48.456;-4.456;2023-06-22T07:53:13;22.88;62.10
74178;DHT22;62540;48.456;-4.456;2023-06-22T07:55:38;23.39;61.35
74178;DHT22;62540;48.456;-4.456;2023-06-22T07:58:03;24.08;60.91
74178;DHT22;62540;48.456;-4.456;2023-06-22T08:00:29;24.76;60.10
74178;DHT22;62540;48.456;-4.456;2023-06-22T08:02:54;25.38;58.91
74178;DHT22;62540;48.456;-4.456;2023-06-22T08:05:20;25.58;57.98
74178;DHT22;62540;48.456;-4.456;2023-06-22T08:07:45;25.41;58.08
74178;DHT22;62540;48.456;-4.456;2023-06-22T08:10:11;25.18;58.55
74178;DHT22;62540;48.456;-4.456;2023-06-22T08:12:37;25.17;58.85
74178;DHT22;62540;48.456;-4.456;2023-06-22T08:15:03;25.14;58.87
74178;DHT22;62540;48.456;-4.456;2023-06-22T08:17:29;25.13;58.72
74178;DHT22;62540;48.456;-4.456;2023-06-22T08:19:56;25.30;58.16
74178;DHT22;62540;48.456;-4.456;2023-06-22T08:22:22;25.71;57.09
74178;DHT22;62540;48.456;-4.456;2023-06-22T08:24:47;26.29;54.78
74178;DHT22;62540;48.456;-4.456;2023-06-22T08:27:13;26.32;54.58
74178;DHT22;62540;48.456;-4.456;2023-06-22T08:29:40;26.22;54.38
74178;DHT22;62540;48.456;-4.456;2023-06-22T08:32:08;26.48;53.98
74178;DHT22;62540;48.456;-4.456;2023-06-22T08:34:34;26.87;53.10
74178;DHT22;62540;48.456;-4.456;2023-06-22T08:36:59;27.26;52.14
74178;DHT22;62540;48.456;-4.456;2023-06-22T08:39:25;27.70;52.03
74178;DHT22;62540;48.456;-4.456;2023-06-22T08:41:51;28.18;51.95
74178;DHT22;62540;48.456;-4.456;2023-06-22T08:44:18;28.27;49.52
74178;DHT22;62540;48.456;-4.456;2023-06-22T08:46:43;28.19;51.93
74178;DHT22;62540;48.456;-4.456;2023-06-22T08:49:09;28.14;52.02
74178;DHT22;62540;48.456;-4.456;2023-06-22T08:51:35;28.45;51.07
74178;DHT22;62540;48.456;-4.456;2023-06-22T08:54:00;28.34;51.32
74178;DHT22;62540;48.456;-4.456;2023-06-22T08:56:26;28.22;51.51
74178;DHT22;62540;48.456;-4.456;2023-06-22T08:58:51;28.60;49.26
74178;DHT22;62540;48.456;-4.456;2023-06-22T09:01:17;28.99;49.00
74178;DHT22;62540;48.456;-4.456;2023-06-22T09:03:42;29.28;48.34
74178;DHT22;62540;48.456;-4.456;2023-06-22T09:06:07;29.54;47.25
74178;DHT22;62540;48.456;-4.456;2023-06-22T09:08:36;29.86;47.22
74178;DHT22;62540;48.456;-4.456;2023-06-22T09:11:01;29.65;46.77
74178;DHT22;62540;48.456;-4.456;2023-06-22T09:13:30;29.93;46.78
74178;DHT22;62540;48.456;-4.456;2023-06-22T09:15:55;30.27;46.57
74178;DHT22;62540;48.456;-4.456;2023-06-22T09:18:20;30.45;45.75
74178;DHT22;62540;48.456;-4.456;2023-06-22T09:20:46;30.13;46.05
74178;DHT22;62540;48.456;-4.456;2023-06-22T09:23:11;29.83;46.82
74178;DHT22;62540;48.456;-4.456;2023-06-22T09:25:37;29.99;47.06
74178;DHT22;62540;48.456;-4.456;2023-06-22T09:28:02;30.53;46.23
74178;DHT22;62540;48.456;-4.456;2023-06-22T09:30:27;30.87;45.55
74178;DHT22;62540;48.456;-4.456;2023-06-22T09:32:53;30.79;45.77
74178;DHT22;62540;48.456;-4.456;2023-06-22T09:35:19;30.81;45.45
74178;DHT22;62540;48.456;-4.456;2023-06-22T09:37:45;31.29;45.58
74178;DHT22;62540;48.456;-4.456;2023-06-22T09:40:11;31.80;42.49
74178;DHT22;62540;48.456;-4.456;2023-06-22T09:42:38;31.98;42.99
74178;DHT22;62540;48.456;-4.456;2023-06-22T09:45:05;32.03;42.75
74178;DHT22;62540;48.456;-4.456;2023-06-22T09:47:30;32.03;41.57
74178;DHT22;62540;48.456;-4.456;2023-06-22T09:49:55;31.51;41.36
74178;DHT22;62540;48.456;-4.456;2023-06-22T09:52:21;31.39;41.42
74178;DHT22;62540;48.456;-4.456;2023-06-22T09:54:47;31.53;41.97
74178;DHT22;62540;48.456;-4.456;2023-06-22T09:57:12;31.87;42.19
74178;DHT22;62540;48.456;-4.456;2023-06-22T09:59:38;32.25;42.15
74178;DHT22;62540;48.456;-4.456;2023-06-22T10:02:06;32.27;42.32
74178;DHT22;62540;48.456;-4.456;2023-06-22T10:04:31;32.52;42.52
74178;DHT22;62540;48.456;-4.456;2023-06-22T10:06:57;32.99;42.32
74178;DHT22;62540;48.456;-4.456;2023-06-22T10:09:22;33.35;40.37
74178;DHT22;62540;48.456;-4.456;2023-06-22T10:11:48;33.17;38.37
74178;DHT22;62540;48.456;-4.456;2023-06-22T10:14:13;33.06;40.21
74178;DHT22;62540;48.456;-4.456;2023-06-22T10:16:39;33.09;39.54
74178;DHT22;62540;48.456;-4.456;2023-06-22T10:19:06;33.10;39.13
74178;DHT22;62540;48.456;-4.456;2023-06-22T10:21:31;32.98;38.88
74178;DHT22;62540;48.456;-4.456;2023-06-22T10:23:58;32.62;39.23
74178;DHT22;62540;48.456;-4.456;2023-06-22T10:26:24;32.27;39.65
74178;DHT22;62540;48.456;-4.456;2023-06-22T10:28:50;32.23;40.00
74178;DHT22;62540;48.456;-4.456;2023-06-22T10:31:15;32.17;39.99
74178;DHT22;62540;48.456;-4.456;2023-06-22T10:33:41;32.07;39.47
74178;DHT22;62540;48.456;-4.456;2023-06-22T10:36:09;32.35;40.16
74178;DHT22;62540;48.456;-4.456;2023-06-22T10:38:35;32.36;39.36
74178;DHT22;62540;48.456;-4.456;2023-06-22T10:41:00;32.08;40.60
74178;DHT22;62540;48.456;-4.456;2023-06-22T10:43:25;32.23;39.64
74178;DHT22;62540;48.456;-4.456;2023-06-22T10:45:51;32.24;40.15
74178;DHT22;62540;48.456;-4.456;2023-06-22T10:48:16;32.21;38.72
74178;DHT22;62540;48.456;-4.456;2023-06-22T10:50:41;32.01;39.41
74178;DHT22;62540;48.456;-4.456;2023-06-22T10:53:07;32.05;39.31
74178;DHT22;62540;48.456;-4.456;2023-06-22T10:55:32;32.03;39.79
74178;DHT22;62540;48.456;-4.456;2023-06-22T10:57:57;32.10;39.84
74178;DHT22;62540;48.456;-4.456;2023-06-22T11:00:23;32.13;39.28
74178;DHT22;62540;48.456;-4.456;2023-06-22T11:02:48;32.08;40.64
74178;DHT22;62540;48.456;-4.456;2023-06-22T11:05:14;31.95;40.63
74178;DHT22;62540;48.456;-4.456;2023-06-22T11:07:43;31.87;40.70
74178;DHT22;62540;48.456;-4.456;2023-06-22T11:10:09;32.07;40.53
74178;DHT22;62540;48.456;-4.456;2023-06-22T11:12:34;32.28;40.68
74178;DHT22;62540;48.456;-4.456;2023-06-22T11:15:00;32.31;40.37
74178;DHT22;62540;48.456;-4.456;2023-06-22T11:17:25;32.14;39.67
74178;DHT22;62540;48.456;-4.456;2023-06-22T11:19:51;32.29;40.78
74178;DHT22;62540;48.456;-4.456;2023-06-22T11:22:16;32.65;40.90
74178;DHT22;62540;48.456;-4.456;2023-06-22T11:24:41;33.03;40.73
74178;DHT22;62540;48.456;-4.456;2023-06-22T11:27:07;33.31;39.94
74178;DHT22;62540;48.456;-4.456;2023-06-22T11:29:32;33.41;39.21
74178;DHT22;62540;48.456;-4.456;2023-06-22T11:31:57;33.51;39.93
74178;DHT22;62540;48.456;-4.456;2023-06-22T11:34:23;33.75;39.19
74178;DHT22;62540;48.456;-4.456;2023-06-22T11:36:48;33.99;37.68
74178;DHT22;62540;48.456;-4.456;2023-06-22T11:39:13;34.17;36.71
74178;DHT22;62540;48.456;-4.456;2023-06-22T11:41:40;33.94;37.80
74178;DHT22;62540;48.456;-4.456;2023-06-22T11:44:06;33.67;38.17
74178;DHT22;62540;48.456;-4.456;2023-06-22T11:46:32;33.64;37.90
74178;DHT22;62540;48.456;-4.456;2023-06-22T11:48:57;33.88;37.86
74178;DHT22;62540;48.456;-4.456;2023-06-22T11:51:23;33.87;37.46
74178;DHT22;62540;48.456;-4.456;2023-06-22T11:53:48;33.84;38.45
74178;DHT22;62540;48.456;-4.456;2023-06-22T11:56:14;33.84;37.24
74178;DHT22;62540;48.456;-4.456;2023-06-22T11:58:39;33.57;37.24
74178;DHT22;62540;48.456;-4.456;2023-06-22T12:01:04;33.53;37.55
74178;DHT22;62540;48.456;-4.456;2023-06-22T12:03:30;33.38;37.64
74178;DHT22;62540;48.456;-4.456;2023-06-22T12:05:55;33.21;38.78
74178;DHT22;62540;48.456;-4.456;2023-06-22T12:08:21;33.04;37.87
74178;DHT22;62540;48.456;-4.456;2023-06-22T12:10:47;32.59;37.89
74178;DHT22;62540;48.456;-4.456;2023-06-22T12:13:12;31.95;38.10
74178;DHT22;62540;48.456;-4.456;2023-06-22T12:15:38;31.67;39.37
74178;DHT22;62540;48.456;-4.456;2023-06-22T12:18:03;31.88;39.51
74178;DHT22;62540;48.456;-4.456;2023-06-22T12:20:29;31.94;38.62
74178;DHT22;62540;48.456;-4.456;2023-06-22T12:22:54;31.70;39.19
74178;DHT22;62540;48.456;-4.456;2023-06-22T12:25:22;31.50;39.82
74178;DHT22;62540;48.456;-4.456;2023-06-22T12:27:47;31.32;40.73
74178;DHT22;62540;48.456;-4.456;2023-06-22T12:30:13;31.49;41.35
74178;DHT22;62540;48.456;-4.456;2023-06-22T12:32:38;31.67;40.04
74178;DHT22;62540;48.456;-4.456;2023-06-22T12:35:04;31.77;39.52
74178;DHT22;62540;48.456;-4.456;2023-06-22T12:37:29;31.53;40.41
74178;DHT22;62540;48.456;-4.456;2023-06-22T12:39:56;31.62;40.79
74178;DHT22;62540;48.456;-4.456;2023-06-22T12:42:22;31.90;41.00
74178;DHT22;62540;48.456;-4.456;2023-06-22T12:44:47;32.13;39.68
74178;DHT22;62540;48.456;-4.456;2023-06-22T12:47:13;32.14;39.54
74178;DHT22;62540;48.456;-4.456;2023-06-22T12:49:38;32.14;39.74
74178;DHT22;62540;48.456;-4.456;2023-06-22T12:52:09;32.10;39.73
74178;DHT22;62540;48.456;-4.456;2023-06-22T12:54:35;32.29;39.96
74178;DHT22;62540;48.456;-4.456;2023-06-22T12:57:01;32.49;40.32
74178;DHT22;62540;48.456;-4.456;2023-06-22T12:59:26;32.65;39.84
74178;DHT22;62540;48.456;-4.456;2023-06-22T13:01:52;32.58;39.58
74178;DHT22;62540;48.456;-4.456;2023-06-22T13:04:17;32.66;39.88
74178;DHT22;62540;48.456;-4.456;2023-06-22T13:06:45;32.62;38.90
74178;DHT22;62540;48.456;-4.456;2023-06-22T13:09:14;32.55;39.25
74178;DHT22;62540;48.456;-4.456;2023-06-22T13:11:40;32.24;39.00
74178;DHT22;62540;48.456;-4.456;2023-06-22T13:14:05;31.90;39.91
74178;DHT22;62540;48.456;-4.456;2023-06-22T13:16:31;31.66;40.45
74178;DHT22;62540;48.456;-4.456;2023-06-22T13:18:56;31.54;40.81
74178;DHT22;62540;48.456;-4.456;2023-06-22T13:21:21;31.60;41.31
74178;DHT22;62540;48.456;-4.456;2023-06-22T13:23:47;31.78;41.08
74178;DHT22;62540;48.456;-4.456;2023-06-22T13:26:12;31.87;41.09
74178;DHT22;62540;48.456;-4.456;2023-06-22T13:28:38;32.04;40.77
74178;DHT22;62540;48.456;-4.456;2023-06-22T13:31:03;32.24;40.48
74178;DHT22;62540;48.456;-4.456;2023-06-22T13:33:28;32.28;40.13
74178;DHT22;62540;48.456;-4.456;2023-06-22T13:35:54;32.42;39.90
74178;DHT22;62540;48.456;-4.456;2023-06-22T13:38:19;32.48;40.02
74178;DHT22;62540;48.456;-4.456;2023-06-22T13:40:45;32.56;39.79
74178;DHT22;62540;48.456;-4.456;2023-06-22T13:43:10;32.59;39.57
74178;DHT22;62540;48.456;-4.456;2023-06-22T13:45:36;32.59;39.22
74178;DHT22;62540;48.456;-4.456;2023-06-22T13:48:01;32.42;39.02
74178;DHT22;62540;48.456;-4.456;2023-06-22T13:50:27;32.39;39.19
74178;DHT22;62540;48.456;-4.456;2023-06-22T13:52:54;32.32;38.54
74178;DHT22;62540;48.456;-4.456;2023-06-22T13:55:19;31.95;38.58
74178;DHT22;62540;48.456;-4.456;2023-06-22T13:57:46;31.49;39.33
74178;DHT22;62540;48.456;-4.456;2023-06-22T14:00:12;31.23;40.12
74178;DHT22;62540;48.456;-4.456;2023-06-22T14:02:38;31.11;40.05
74178;DHT22;62540;48.456;-4.456;2023-06-22T14:05:05;31.03;40.70
74178;DHT22;62540;48.456;-4.456;2023-06-22T14:07:31;31.12;40.91
74178;DHT22;62540;48.456;-4.456;2023-06-22T14:09:56;31.14;40.45
74178;DHT22;62540;48.456;-4.456;2023-06-22T14:12:23;31.03;40.27
74178;DHT22;62540;48.456;-4.456;2023-06-22T14:14:48;30.98;40.28
74178;DHT22;62540;48.456;-4.456;2023-06-22T14:17:14;30.74;41.29
74178;DHT22;62540;48.456;-4.456;2023-06-22T14:19:39;30.63;41.84
74178;DHT22;62540;48.456;-4.456;2023-06-22T14:22:05;30.58;41.70
74178;DHT22;62540;48.456;-4.456;2023-06-22T14:24:30;30.31;41.48
74178;DHT22;62540;48.456;-4.456;2023-06-22T14:26:55;30.23;42.16
74178;DHT22;62540;48.456;-4.456;2023-06-22T14:29:21;30.23;41.81
74178;DHT22;62540;48.456;-4.456;2023-06-22T14:31:47;30.09;42.45
74178;DHT22;62540;48.456;-4.456;2023-06-22T14:34:13;30.05;42.65
74178;DHT22;62540;48.456;-4.456;2023-06-22T14:36:39;29.98;42.88
74178;DHT22;62540;48.456;-4.456;2023-06-22T14:39:04;29.86;43.45
74178;DHT22;62540;48.456;-4.456;2023-06-22T14:41:30;29.88;43.37
74178;DHT22;62540;48.456;-4.456;2023-06-22T14:43:56;29.86;43.60
74178;DHT22;62540;48.456;-4.456;2023-06-22T14:46:21;30.06;43.28
74178;DHT22;62540;48.456;-4.456;2023-06-22T14:48:47;30.19;43.28
74178;DHT22;62540;48.456;-4.456;2023-06-22T14:51:13;30.19;42.85
74178;DHT22;62540;48.456;-4.456;2023-06-22T14:53:39;30.12;43.41
74178;DHT22;62540;48.456;-4.456;2023-06-22T14:56:04;30.09;43.68
74178;DHT22;62540;48.456;-4.456;2023-06-22T14:58:31;30.14;43.78
74178;DHT22;62540;48.456;-4.456;2023-06-22T15:00:59;30.12;42.34
74178;DHT22;62540;48.456;-4.456;2023-06-22T15:03:24;29.99;43.04
74178;DHT22;62540;48.456;-4.456;2023-06-22T15:05:53;30.05;42.79
74178;DHT22;62540;48.456;-4.456;2023-06-22T15:08:18;29.96;42.38
74178;DHT22;62540;48.456;-4.456;2023-06-22T15:10:44;29.71;42.83
74178;DHT22;62540;48.456;-4.456;2023-06-22T15:13:10;29.64;43.02
74178;DHT22;62540;48.456;-4.456;2023-06-22T15:15:35;29.55;43.53
74178;DHT22;62540;48.456;-4.456;2023-06-22T15:18:01;29.58;43.40